sensor_id;sensor_type;location;lat;lon;timestamp;temperature;humidity
22923;DHT22;11627;51.322;22.816;2022-09-02T00:03:36;11.20;99.90
22923;DHT22;11627;51.322;22.816;2022-09-02T00:06:02;11.40;81.00
22923;DHT22;11627;51.322;22.816;2022-09-02T00:08:29;11.20;25.40
22923;DHT22;11627;51.322;22.816;2022-09-02T00:10:59;11.30;1.00
22923;DHT22;11627;51.322;22.816;2022-09-02T00:13:26;11.10;99.90
22923;DHT22;11627;51.322;22.816;2022-09-02T00:15:53;11.10;1.00
22923;DHT22;11627;51.322;22.816;2022-09-02T00:20:46;11.50;99.90
22923;DHT22;11627;51.322;22.816;2022-09-02T00:23:13;11.10;99.90
22923;DHT22;11627;51.322;22.816;2022-09-02T00:25:40;11.10;99.90
22923;DHT22;11627;51.322;22.816;2022-09-02T00:28:06;11.00;99.90
22923;DHT22;11627;51.322;22.816;2022-09-02T00:30:33;10.90;99.90
22923;DHT22;11627;51.322;22.816;2022-09-02T00:32:59;10.80;99.90
22923;DHT22;11627;51.322;22.816;2022-09-02T00:35:25;10.80;99.90
22923;DHT22;11627;51.322;22.816;2022-09-02T00:40:17;10.80;76.10
22923;DHT22;11627;51.322;22.816;2022-09-02T00:42:43;10.70;51.60
22923;DHT22;11627;51.322;22.816;2022-09-02T00:45:11;11.00;40.60
22923;DHT22;11627;51.322;22.816;2022-09-02T00:47:37;10.50;35.70
22923;DHT22;11627;51.322;22.816;2022-09-02T00:50:07;10.90;29.70
22923;DHT22;11627;51.322;22.816;2022-09-02T00:52:39;10.60;1.00
22923;DHT22;11627;51.322;22.816;2022-09-02T00:55:19;10.70;56.10
22923;DHT22;11627;51.322;22.816;2022-09-02T00:57:50;10.50;1.00
22923;DHT22;11627;51.322;22.816;2022-09-02T01:00:26;10.40;60.30
22923;DHT22;11627;51.322;22.816;2022-09-02T01:02:55;10.10;1.00
22923;DHT22;11627;51.322;22.816;2022-09-02T01:05:24;10.10;1.00
22923;DHT22;11627;51.322;22.816;2022-09-02T01:07:51;10.30;1.00
22923;DHT22;11627;51.322;22.816;2022-09-02T01:10:28;10.20;1.00
22923;DHT22;11627;51.322;22.816;2022-09-02T01:13:03;10.30;1.00
22923;DHT22;11627;51.322;22.816;2022-09-02T01:15:37;10.20;99.90
22923;DHT22;11627;51.322;22.816;2022-09-02T01:18:05;10.30;99.90
22923;DHT22;11627;51.322;22.816;2022-09-02T01:22:59;10.30;99.90
22923;DHT22;11627;51.322;22.816;2022-09-02T01:25:28;10.10;99.90
22923;DHT22;11627;51.322;22.816;2022-09-02T01:28:08;10.20;1.00
22923;DHT22;11627;51.322;22.816;2022-09-02T01:30:37;10.40;1.00
22923;DHT22;11627;51.322;22.816;2022-09-02T01:33:03;10.30;99.90
22923;DHT22;11627;51.322;22.816;2022-09-02T01:35:29;10.30;99.90
22923;DHT22;11627;51.322;22.816;2022-09-02T01:37:56;10.30;99.90
22923;DHT22;11627;51.322;22.816;2022-09-02T01:40:24;10.00;1.00
22923;DHT22;11627;51.322;22.816;2022-09-02T01:43:05;9.90;1.00
22923;DHT22;11627;51.322;22.816;2022-09-02T01:45:35;10.00;19.00
22923;DHT22;11627;51.322;22.816;2022-09-02T01:48:01;10.10;99.90
22923;DHT22;11627;51.322;22.816;2022-09-02T01:50:28;9.90;99.90
22923;DHT22;11627;51.322;22.816;2022-09-02T01:52:54;9.90;1.00
22923;DHT22;11627;51.322;22.816;2022-09-02T01:55:20;10.10;99.90
22923;DHT22;11627;51.322;22.816;2022-09-02T01:57:47;10.10;99.90
22923;DHT22;11627;51.322;22.816;2022-09-02T02:00:13;10.10;99.90
22923;DHT22;11627;51.322;22.816;2022-09-02T02:02:40;10.10;99.90
22923;DHT22;11627;51.322;22.816;2022-09-02T02:05:06;9.90;99.90
22923;DHT22;11627;51.322;22.816;2022-09-02T02:07:32;10.00;99.90
22923;DHT22;11627;51.322;22.816;2022-09-02T02:09:58;9.50;99.90
22923;DHT22;11627;51.322;22.816;2022-09-02T02:12:24;9.40;1.00
22923;DHT22;11627;51.322;22.816;2022-09-02T02:14:50;9.70;99.90
22923;DHT22;11627;51.322;22.816;2022-09-02T02:17:16;9.70;99.90
22923;DHT22;11627;51.322;22.816;2022-09-02T02:19:42;9.90;1.00
22923;DHT22;11627;51.322;22.816;2022-09-02T02:22:08;9.70;1.00
22923;DHT22;11627;51.322;22.816;2022-09-02T02:24:34;9.80;1.00
22923;DHT22;11627;51.322;22.816;2022-09-02T02:27:00;9.80;1.00
22923;DHT22;11627;51.322;22.816;2022-09-02T02:29:26;9.80;1.00
22923;DHT22;11627;51.322;22.816;2022-09-02T02:31:51;9.60;1.00
22923;DHT22;11627;51.322;22.816;2022-09-02T02:34:17;10.10;99.90
22923;DHT22;11627;51.322;22.816;2022-09-02T02:36:43;9.90;99.90
22923;DHT22;11627;51.322;22.816;2022-09-02T02:39:09;9.90;99.90
22923;DHT22;11627;51.322;22.816;2022-09-02T02:41:37;9.90;99.90
22923;DHT22;11627;51.322;22.816;2022-09-02T02:44:04;9.70;99.90
22923;DHT22;11627;51.322;22.816;2022-09-02T02:46:30;9.70;99.90
22923;DHT22;11627;51.322;22.816;2022-09-02T02:48:58;9.50;99.90
22923;DHT22;11627;51.322;22.816;2022-09-02T02:51:25;9.60;99.90
22923;DHT22;11627;51.322;22.816;2022-09-02T02:53:51;9.40;99.90
22923;DHT22;11627;51.322;22.816;2022-09-02T03:01:10;9.40;99.90
22923;DHT22;11627;51.322;22.816;2022-09-02T03:03:36;9.30;99.90
22923;DHT22;11627;51.322;22.816;2022-09-02T03:06:03;9.40;99.90
22923;DHT22;11627;51.322;22.816;2022-09-02T03:08:29;9.40;99.90
22923;DHT22;11627;51.322;22.816;2022-09-02T03:10:55;9.60;99.90
22923;DHT22;11627;51.322;22.816;2022-09-02T03:13:23;9.40;99.90
22923;DHT22;11627;51.322;22.816;2022-09-02T03:15:49;9.50;1.00
22923;DHT22;11627;51.322;22.816;2022-09-02T03:18:15;9.40;99.90
22923;DHT22;11627;51.322;22.816;2022-09-02T03:20:42;9.30;1.00
22923;DHT22;11627;51.322;22.816;2022-09-02T03:23:08;9.00;1.00
22923;DHT22;11627;51.322;22.816;2022-09-02T03:25:35;8.90;1.00
22923;DHT22;11627;51.322;22.816;2022-09-02T03:28:02;9.20;1.00
22923;DHT22;11627;51.322;22.816;2022-09-02T03:30:30;9.10;1.00
22923;DHT22;11627;51.322;22.816;2022-09-02T03:32:58;8.90;99.90
22923;DHT22;11627;51.322;22.816;2022-09-02T03:35:27;8.80;99.90
22923;DHT22;11627;51.322;22.816;2022-09-02T03:37:54;9.30;99.90
22923;DHT22;11627;51.322;22.816;2022-09-02T03:40:22;9.30;99.90
22923;DHT22;11627;51.322;22.816;2022-09-02T03:42:48;9.10;99.90
22923;DHT22;11627;51.322;22.816;2022-09-02T03:45:15;9.30;1.00
22923;DHT22;11627;51.322;22.816;2022-09-02T03:47:41;9.30;62.90
22923;DHT22;11627;51.322;22.816;2022-09-02T03:50:17;9.30;47.50
22923;DHT22;11627;51.322;22.816;2022-09-02T03:52:43;9.20;1.00
22923;DHT22;11627;51.322;22.816;2022-09-02T03:55:09;9.10;77.30
22923;DHT22;11627;51.322;22.816;2022-09-02T03:57:35;9.00;73.40
22923;DHT22;11627;51.322;22.816;2022-09-02T04:00:04;9.00;12.20
22923;DHT22;11627;51.322;22.816;2022-09-02T04:02:32;9.20;22.70
22923;DHT22;11627;51.322;22.816;2022-09-02T04:04:58;9.10;31.70
22923;DHT22;11627;51.322;22.816;2022-09-02T04:07:24;9.10;1.00
22923;DHT22;11627;51.322;22.816;2022-09-02T04:09:50;9.00;99.90
22923;DHT22;11627;51.322;22.816;2022-09-02T04:12:15;8.70;1.00
22923;DHT22;11627;51.322;22.816;2022-09-02T04:14:41;8.90;1.00
22923;DHT22;11627;51.322;22.816;2022-09-02T04:17:08;8.70;98.20
22923;DHT22;11627;51.322;22.816;2022-09-02T04:22:02;9.00;99.90
22923;DHT22;11627;51.322;22.816;2022-09-02T04:24:27;9.10;99.90
22923;DHT22;11627;51.322;22.816;2022-09-02T04:26:54;9.10;27.80
22923;DHT22;11627;51.322;22.816;2022-09-02T04:29:19;9.20;99.90
22923;DHT22;11627;51.322;22.816;2022-09-02T04:31:45;9.30;99.90
22923;DHT22;11627;51.322;22.816;2022-09-02T04:34:11;9.20;99.90
22923;DHT22;11627;51.322;22.816;2022-09-02T04:36:36;9.40;99.90
22923;DHT22;11627;51.322;22.816;2022-09-02T04:39:02;9.30;99.90
22923;DHT22;11627;51.322;22.816;2022-09-02T04:41:29;9.60;99.90
22923;DHT22;11627;51.322;22.816;2022-09-02T04:43:56;9.70;99.90
22923;DHT22;11627;51.322;22.816;2022-09-02T04:46:23;9.90;99.90
22923;DHT22;11627;51.322;22.816;2022-09-02T04:48:48;9.80;99.90
22923;DHT22;11627;51.322;22.816;2022-09-02T04:51:20;9.80;99.90
22923;DHT22;11627;51.322;22.816;2022-09-02T04:53:47;9.90;39.40
22923;DHT22;11627;51.322;22.816;2022-09-02T04:56:15;9.70;92.40
22923;DHT22;11627;51.322;22.816;2022-09-02T04:58:42;9.90;53.60
22923;DHT22;11627;51.322;22.816;2022-09-02T05:01:14;10.20;1.00
22923;DHT22;11627;51.322;22.816;2022-09-02T05:03:41;10.30;40.60
22923;DHT22;11627;51.322;22.816;2022-09-02T05:06:09;10.30;99.90
22923;DHT22;11627;51.322;22.816;2022-09-02T05:08:35;10.40;99.90
22923;DHT22;11627;51.322;22.816;2022-09-02T05:11:09;10.20;99.90
22923;DHT22;11627;51.322;22.816;2022-09-02T05:13:35;10.60;99.90
22923;DHT22;11627;51.322;22.816;2022-09-02T05:16:01;10.40;99.90
22923;DHT22;11627;51.322;22.816;2022-09-02T05:18:27;10.50;99.90
22923;DHT22;11627;51.322;22.816;2022-09-02T05:20:53;10.50;99.90
22923;DHT22;11627;51.322;22.816;2022-09-02T05:23:19;10.70;99.90
22923;DHT22;11627;51.322;22.816;2022-09-02T05:25:45;10.80;99.90
22923;DHT22;11627;51.322;22.816;2022-09-02T05:30:38;10.90;99.90
22923;DHT22;11627;51.322;22.816;2022-09-02T05:33:04;11.10;99.90
22923;DHT22;11627;51.322;22.816;2022-09-02T05:35:31;11.40;99.90
22923;DHT22;11627;51.322;22.816;2022-09-02T05:37:57;11.40;99.90
22923;DHT22;11627;51.322;22.816;2022-09-02T05:40:23;11.50;99.90
22923;DHT22;11627;51.322;22.816;2022-09-02T05:42:50;11.60;99.90
22923;DHT22;11627;51.322;22.816;2022-09-02T05:45:17;11.70;99.90
22923;DHT22;11627;51.322;22.816;2022-09-02T05:47:43;11.80;99.90
22923;DHT22;11627;51.322;22.816;2022-09-02T05:50:09;11.80;99.90
22923;DHT22;11627;51.322;22.816;2022-09-02T05:52:35;11.90;99.90
22923;DHT22;11627;51.322;22.816;2022-09-02T05:55:01;12.20;99.90
22923;DHT22;11627;51.322;22.816;2022-09-02T05:57:28;12.40;62.30
22923;DHT22;11627;51.322;22.816;2022-09-02T06:02:22;12.50;13.20
22923;DHT22;11627;51.322;22.816;2022-09-02T06:04:50;12.30;1.30
22923;DHT22;11627;51.322;22.816;2022-09-02T06:07:22;12.10;21.60
22923;DHT22;11627;51.322;22.816;2022-09-02T06:09:49;12.20;99.90
22923;DHT22;11627;51.322;22.816;2022-09-02T06:12:17;12.60;68.50
22923;DHT22;11627;51.322;22.816;2022-09-02T06:14:45;12.60;46.10
22923;DHT22;11627;51.322;22.816;2022-09-02T06:17:12;13.00;14.50
22923;DHT22;11627;51.322;22.816;2022-09-02T06:19:37;12.80;6.00
22923;DHT22;11627;51.322;22.816;2022-09-02T06:22:04;13.20;1.00
22923;DHT22;11627;51.322;22.816;2022-09-02T06:24:31;13.00;1.00
22923;DHT22;11627;51.322;22.816;2022-09-02T06:26:58;12.80;1.00
22923;DHT22;11627;51.322;22.816;2022-09-02T06:29:26;13.30;1.00
22923;DHT22;11627;51.322;22.816;2022-09-02T06:31:52;12.90;1.00
22923;DHT22;11627;51.322;22.816;2022-09-02T06:34:20;13.60;99.90
22923;DHT22;11627;51.322;22.816;2022-09-02T06:36:47;13.40;99.90
22923;DHT22;11627;51.322;22.816;2022-09-02T06:39:17;13.40;99.90
22923;DHT22;11627;51.322;22.816;2022-09-02T06:41:44;13.60;99.90
22923;DHT22;11627;51.322;22.816;2022-09-02T06:44:14;13.90;99.90
22923;DHT22;11627;51.322;22.816;2022-09-02T06:46:44;13.80;99.90
22923;DHT22;11627;51.322;22.816;2022-09-02T06:51:43;14.20;1.00
22923;DHT22;11627;51.322;22.816;2022-09-02T06:54:12;13.90;99.90
22923;DHT22;11627;51.322;22.816;2022-09-02T06:56:38;14.30;39.10
22923;DHT22;11627;51.322;22.816;2022-09-02T06:59:05;14.10;1.00
22923;DHT22;11627;51.322;22.816;2022-09-02T07:01:31;14.20;1.00
22923;DHT22;11627;51.322;22.816;2022-09-02T07:03:57;14.40;1.00
22923;DHT22;11627;51.322;22.816;2022-09-02T07:06:52;14.30;1.00
22923;DHT22;11627;51.322;22.816;2022-09-02T07:09:21;14.70;1.00
22923;DHT22;11627;51.322;22.816;2022-09-02T07:11:48;14.50;99.90
22923;DHT22;11627;51.322;22.816;2022-09-02T07:14:19;14.50;99.90
22923;DHT22;11627;51.322;22.816;2022-09-02T07:16:48;14.80;1.00
22923;DHT22;11627;51.322;22.816;2022-09-02T07:21:40;14.80;99.90
22923;DHT22;11627;51.322;22.816;2022-09-02T07:24:07;14.90;99.90
22923;DHT22;11627;51.322;22.816;2022-09-02T07:26:35;14.90;99.90
22923;DHT22;11627;51.322;22.816;2022-09-02T07:29:00;14.90;1.00
22923;DHT22;11627;51.322;22.816;2022-09-02T07:31:26;15.00;99.90
22923;DHT22;11627;51.322;22.816;2022-09-02T07:33:54;15.20;6.80
22923;DHT22;11627;51.322;22.816;2022-09-02T07:36:27;15.10;99.90
22923;DHT22;11627;51.322;22.816;2022-09-02T07:38:52;15.30;90.60
22923;DHT22;11627;51.322;22.816;2022-09-02T07:41:19;15.30;1.00
22923;DHT22;11627;51.322;22.816;2022-09-02T07:43:46;15.40;99.90
22923;DHT22;11627;51.322;22.816;2022-09-02T07:46:11;15.30;99.90
22923;DHT22;11627;51.322;22.816;2022-09-02T07:48:37;15.50;1.00
22923;DHT22;11627;51.322;22.816;2022-09-02T07:51:05;15.60;74.60
22923;DHT22;11627;51.322;22.816;2022-09-02T07:53:33;15.60;1.00
22923;DHT22;11627;51.322;22.816;2022-09-02T07:55:59;15.70;99.90
22923;DHT22;11627;51.322;22.816;2022-09-02T07:58:26;15.70;1.00
22923;DHT22;11627;51.322;22.816;2022-09-02T08:00:53;15.80;1.00
22923;DHT22;11627;51.322;22.816;2022-09-02T08:03:22;15.90;99.90
22923;DHT22;11627;51.322;22.816;2022-09-02T08:05:48;16.00;99.90
22923;DHT22;11627;51.322;22.816;2022-09-02T08:08:17;16.00;1.00
22923;DHT22;11627;51.322;22.816;2022-09-02T08:10:50;16.00;99.90
22923;DHT22;11627;51.322;22.816;2022-09-02T08:13:17;16.10;1.00
22923;DHT22;11627;51.322;22.816;2022-09-02T08:15:45;16.20;1.00
22923;DHT22;11627;51.322;22.816;2022-09-02T08:18:10;16.30;36.10
22923;DHT22;11627;51.322;22.816;2022-09-02T08:20:37;16.30;1.00
22923;DHT22;11627;51.322;22.816;2022-09-02T08:23:05;16.40;99.90
22923;DHT22;11627;51.322;22.816;2022-09-02T08:25:32;16.30;99.90
22923;DHT22;11627;51.322;22.816;2022-09-02T08:27:58;16.40;1.00
22923;DHT22;11627;51.322;22.816;2022-09-02T08:30:24;16.30;1.00
22923;DHT22;11627;51.322;22.816;2022-09-02T08:32:50;16.50;1.00
22923;DHT22;11627;51.322;22.816;2022-09-02T08:35:16;16.20;99.90
22923;DHT22;11627;51.322;22.816;2022-09-02T08:37:41;16.40;99.90
22923;DHT22;11627;51.322;22.816;2022-09-02T08:40:13;16.50;99.90
22923;DHT22;11627;51.322;22.816;2022-09-02T08:42:47;16.60;99.90
22923;DHT22;11627;51.322;22.816;2022-09-02T08:48:21;16.70;1.00
22923;DHT22;11627;51.322;22.816;2022-09-02T08:50:51;16.80;1.00
22923;DHT22;11627;51.322;22.816;2022-09-02T08:53:30;16.70;1.00
22923;DHT22;11627;51.322;22.816;2022-09-02T08:55:58;16.80;1.00
22923;DHT22;11627;51.322;22.816;2022-09-02T08:58:41;16.90;1.00
22923;DHT22;11627;51.322;22.816;2022-09-02T09:06:38;17.00;13.70
22923;DHT22;11627;51.322;22.816;2022-09-02T09:09:21;17.10;1.00
22923;DHT22;11627;51.322;22.816;2022-09-02T09:14:57;17.00;99.90
22923;DHT22;11627;51.322;22.816;2022-09-02T09:18:17;17.10;99.90
22923;DHT22;11627;51.322;22.816;2022-09-02T09:20:32;17.20;99.90
22923;DHT22;11627;51.322;22.816;2022-09-02T09:23:00;17.30;99.90
22923;DHT22;11627;51.322;22.816;2022-09-02T09:25:28;17.40;99.90
22923;DHT22;11627;51.322;22.816;2022-09-02T09:28:00;17.40;99.90
22923;DHT22;11627;51.322;22.816;2022-09-02T09:30:27;17.80;99.90
22923;DHT22;11627;51.322;22.816;2022-09-02T09:32:55;17.50;99.90
22923;DHT22;11627;51.322;22.816;2022-09-02T09:35:26;17.50;99.90
22923;DHT22;11627;51.322;22.816;2022-09-02T09:37:55;17.60;99.90
22923;DHT22;11627;51.322;22.816;2022-09-02T09:40:29;17.70;99.90
22923;DHT22;11627;51.322;22.816;2022-09-02T09:42:56;17.70;99.90
22923;DHT22;11627;51.322;22.816;2022-09-02T09:45:32;17.70;99.90
22923;DHT22;11627;51.322;22.816;2022-09-02T09:48:18;17.70;99.90
22923;DHT22;11627;51.322;22.816;2022-09-02T09:53:30;17.70;87.30
22923;DHT22;11627;51.322;22.816;2022-09-02T09:56:04;17.80;1.00
22923;DHT22;11627;51.322;22.816;2022-09-02T10:01:29;17.90;99.90
22923;DHT22;11627;51.322;22.816;2022-09-02T10:04:02;17.90;99.90
22923;DHT22;11627;51.322;22.816;2022-09-02T10:08:59;18.10;99.90
22923;DHT22;11627;51.322;22.816;2022-09-02T10:11:34;18.10;99.90
22923;DHT22;11627;51.322;22.816;2022-09-02T10:14:01;18.10;99.90
22923;DHT22;11627;51.322;22.816;2022-09-02T10:25:35;18.30;1.00
22923;DHT22;11627;51.322;22.816;2022-09-02T10:38:48;18.50;1.00
22923;DHT22;11627;51.322;22.816;2022-09-02T10:43:58;18.70;99.90
22923;DHT22;11627;51.322;22.816;2022-09-02T10:46:43;18.70;99.90
22923;DHT22;11627;51.322;22.816;2022-09-02T10:49:12;18.70;99.90
22923;DHT22;11627;51.322;22.816;2022-09-02T10:56:48;18.70;99.90
22923;DHT22;11627;51.322;22.816;2022-09-02T11:02:19;18.70;76.60
22923;DHT22;11627;51.322;22.816;2022-09-02T11:04:59;18.60;30.30
22923;DHT22;11627;51.322;22.816;2022-09-02T11:07:35;18.60;9.20
22923;DHT22;11627;51.322;22.816;2022-09-02T11:13:17;18.70;1.00
22923;DHT22;11627;51.322;22.816;2022-09-02T11:15:44;18.80;1.00
22923;DHT22;11627;51.322;22.816;2022-09-02T11:18:36;18.80;1.00
22923;DHT22;11627;51.322;22.816;2022-09-02T11:27:32;19.10;91.50
22923;DHT22;11627;51.322;22.816;2022-09-02T11:35:51;19.20;98.40
22923;DHT22;11627;51.322;22.816;2022-09-02T11:49:26;19.00;72.40
22923;DHT22;11627;51.322;22.816;2022-09-02T11:54:59;19.10;99.90
22923;DHT22;11627;51.322;22.816;2022-09-02T11:57:26;19.20;99.30
22923;DHT22;11627;51.322;22.816;2022-09-02T12:02:37;19.40;24.80
22923;DHT22;11627;51.322;22.816;2022-09-02T12:08:01;19.50;1.00
22923;DHT22;11627;51.322;22.816;2022-09-02T12:13:41;19.70;29.20
22923;DHT22;11627;51.322;22.816;2022-09-02T12:21:19;19.70;1.00
22923;DHT22;11627;51.322;22.816;2022-09-02T12:28:49;19.70;99.20
22923;DHT22;11627;51.322;22.816;2022-09-02T12:34:01;19.60;1.00
22923;DHT22;11627;51.322;22.816;2022-09-02T12:44:29;19.80;1.00
22923;DHT22;11627;51.322;22.816;2022-09-02T12:47:25;19.80;1.00
22923;DHT22;11627;51.322;22.816;2022-09-02T12:50:21;19.80;1.00
22923;DHT22;11627;51.322;22.816;2022-09-02T12:53:05;20.00;1.00
22923;DHT22;11627;51.322;22.816;2022-09-02T12:55:33;20.00;1.00
22923;DHT22;11627;51.322;22.816;2022-09-02T12:58:11;20.10;1.00
22923;DHT22;11627;51.322;22.816;2022-09-02T13:07:04;20.20;1.00
22923;DHT22;11627;51.322;22.816;2022-09-02T13:09:18;20.00;99.90
22923;DHT22;11627;51.322;22.816;2022-09-02T13:20:23;20.30;99.90
22923;DHT22;11627;51.322;22.816;2022-09-02T13:31:26;20.30;99.90
22923;DHT22;11627;51.322;22.816;2022-09-02T13:34:02;20.30;99.90
22923;DHT22;11627;51.322;22.816;2022-09-02T13:36:36;20.30;99.90
22923;DHT22;11627;51.322;22.816;2022-09-02T13:41:38;20.50;99.90
22923;DHT22;11627;51.322;22.816;2022-09-02T13:44:11;20.50;99.90
22923;DHT22;11627;51.322;22.816;2022-09-02T13:46:46;20.60;99.90
22923;DHT22;11627;51.322;22.816;2022-09-02T13:49:24;20.60;99.90
22923;DHT22;11627;51.322;22.816;2022-09-02T13:51:53;20.60;99.90
22923;DHT22;11627;51.322;22.816;2022-09-02T13:54:35;20.70;99.90
22923;DHT22;11627;51.322;22.816;2022-09-02T13:57:06;20.70;99.90
22923;DHT22;11627;51.322;22.816;2022-09-02T13:59:45;20.80;99.90
22923;DHT22;11627;51.322;22.816;2022-09-02T14:02:31;20.80;99.90
22923;DHT22;11627;51.322;22.816;2022-09-02T14:05:05;20.90;99.90
22923;DHT22;11627;51.322;22.816;2022-09-02T14:07:37;21.00;99.90
22923;DHT22;11627;51.322;22.816;2022-09-02T14:10:10;21.00;99.90
22923;DHT22;11627;51.322;22.816;2022-09-02T14:12:38;21.20;99.90
22923;DHT22;11627;51.322;22.816;2022-09-02T14:15:06;21.20;99.90
22923;DHT22;11627;51.322;22.816;2022-09-02T14:17:32;21.30;99.90
22923;DHT22;11627;51.322;22.816;2022-09-02T14:20:16;21.30;1.00
22923;DHT22;11627;51.322;22.816;2022-09-02T14:22:43;21.40;99.90
22923;DHT22;11627;51.322;22.816;2022-09-02T14:25:16;21.50;99.90
22923;DHT22;11627;51.322;22.816;2022-09-02T14:27:53;21.60;99.90
22923;DHT22;11627;51.322;22.816;2022-09-02T14:33:17;22.00;99.90
22923;DHT22;11627;51.322;22.816;2022-09-02T14:36:05;22.30;99.90
22923;DHT22;11627;51.322;22.816;2022-09-02T14:38:52;22.60;99.90
22923;DHT22;11627;51.322;22.816;2022-09-02T14:41:24;23.10;99.90
22923;DHT22;11627;51.322;22.816;2022-09-02T14:43:57;24.00;99.90
22923;DHT22;11627;51.322;22.816;2022-09-02T14:46:30;25.20;99.90
22923;DHT22;11627;51.322;22.816;2022-09-02T14:49:03;26.40;99.90
22923;DHT22;11627;51.322;22.816;2022-09-02T14:51:43;27.40;99.90
22923;DHT22;11627;51.322;22.816;2022-09-02T14:54:09;28.30;99.90
22923;DHT22;11627;51.322;22.816;2022-09-02T14:56:43;29.00;99.90
22923;DHT22;11627;51.322;22.816;2022-09-02T14:59:09;29.40;99.90
22923;DHT22;11627;51.322;22.816;2022-09-02T15:01:46;29.80;99.90
22923;DHT22;11627;51.322;22.816;2022-09-02T15:04:14;30.30;99.90
22923;DHT22;11627;51.322;22.816;2022-09-02T15:06:40;29.60;99.90
22923;DHT22;11627;51.322;22.816;2022-09-02T15:09:07;29.60;99.90
22923;DHT22;11627;51.322;22.816;2022-09-02T15:11:33;28.60;99.90
22923;DHT22;11627;51.322;22.816;2022-09-02T15:13:59;27.80;99.90
22923;DHT22;11627;51.322;22.816;2022-09-02T15:16:24;27.60;99.90
22923;DHT22;11627;51.322;22.816;2022-09-02T15:18:50;27.30;99.90
22923;DHT22;11627;51.322;22.816;2022-09-02T15:21:16;26.90;99.90
22923;DHT22;11627;51.322;22.816;2022-09-02T15:23:42;26.40;99.90
22923;DHT22;11627;51.322;22.816;2022-09-02T15:26:08;26.20;99.90
22923;DHT22;11627;51.322;22.816;2022-09-02T15:28:34;26.20;99.90
22923;DHT22;11627;51.322;22.816;2022-09-02T15:31:00;26.20;99.90
22923;DHT22;11627;51.322;22.816;2022-09-02T15:33:26;25.90;99.90
22923;DHT22;11627;51.322;22.816;2022-09-02T15:35:53;25.40;99.90
22923;DHT22;11627;51.322;22.816;2022-09-02T15:38:20;24.70;99.90
22923;DHT22;11627;51.322;22.816;2022-09-02T15:40:46;24.50;99.90
22923;DHT22;11627;51.322;22.816;2022-09-02T15:43:12;24.50;99.90
22923;DHT22;11627;51.322;22.816;2022-09-02T15:45:48;24.60;99.90
22923;DHT22;11627;51.322;22.816;2022-09-02T15:48:14;24.50;99.90
22923;DHT22;11627;51.322;22.816;2022-09-02T15:53:07;24.40;99.90
22923;DHT22;11627;51.322;22.816;2022-09-02T15:55:33;24.00;99.90
22923;DHT22;11627;51.322;22.816;2022-09-02T15:57:59;23.50;99.90
22923;DHT22;11627;51.322;22.816;2022-09-02T16:00:25;23.00;99.90
22923;DHT22;11627;51.322;22.816;2022-09-02T16:02:52;22.60;99.90
22923;DHT22;11627;51.322;22.816;2022-09-02T16:05:18;22.10;99.90
22923;DHT22;11627;51.322;22.816;2022-09-02T16:07:45;22.10;99.90
22923;DHT22;11627;51.322;22.816;2022-09-02T16:10:11;22.00;99.90
22923;DHT22;11627;51.322;22.816;2022-09-02T16:12:36;22.00;99.90
22923;DHT22;11627;51.322;22.816;2022-09-02T16:15:05;21.90;99.90
22923;DHT22;11627;51.322;22.816;2022-09-02T16:17:31;21.90;99.90
22923;DHT22;11627;51.322;22.816;2022-09-02T16:19:56;21.90;99.90
22923;DHT22;11627;51.322;22.816;2022-09-02T16:22:23;21.60;99.90
22923;DHT22;11627;51.322;22.816;2022-09-02T16:24:48;21.40;99.90
22923;DHT22;11627;51.322;22.816;2022-09-02T16:27:15;21.00;99.90
22923;DHT22;11627;51.322;22.816;2022-09-02T16:30:00;20.80;99.90
22923;DHT22;11627;51.322;22.816;2022-09-02T16:32:26;20.50;99.90
22923;DHT22;11627;51.322;22.816;2022-09-02T16:34:52;20.40;96.00
22923;DHT22;11627;51.322;22.816;2022-09-02T16:37:20;20.20;99.90
22923;DHT22;11627;51.322;22.816;2022-09-02T16:39:45;20.00;97.40
22923;DHT22;11627;51.322;22.816;2022-09-02T16:44:37;19.80;99.90
22923;DHT22;11627;51.322;22.816;2022-09-02T16:47:05;19.60;94.50
22923;DHT22;11627;51.322;22.816;2022-09-02T16:49:31;19.50;99.90
22923;DHT22;11627;51.322;22.816;2022-09-02T16:51:58;19.40;99.90
22923;DHT22;11627;51.322;22.816;2022-09-02T16:54:26;19.30;99.90
22923;DHT22;11627;51.322;22.816;2022-09-02T16:56:53;19.10;99.90
22923;DHT22;11627;51.322;22.816;2022-09-02T16:59:19;19.10;99.90
22923;DHT22;11627;51.322;22.816;2022-09-02T17:01:45;19.00;99.90
22923;DHT22;11627;51.322;22.816;2022-09-02T17:04:10;18.80;99.90
22923;DHT22;11627;51.322;22.816;2022-09-02T17:06:36;18.70;99.90
22923;DHT22;11627;51.322;22.816;2022-09-02T17:09:02;18.60;99.50
22923;DHT22;11627;51.322;22.816;2022-09-02T17:11:38;18.50;99.90
22923;DHT22;11627;51.322;22.816;2022-09-02T17:14:16;18.30;99.90
22923;DHT22;11627;51.322;22.816;2022-09-02T17:16:46;18.20;99.90
22923;DHT22;11627;51.322;22.816;2022-09-02T17:19:13;18.00;99.90
22923;DHT22;11627;51.322;22.816;2022-09-02T17:21:46;17.90;99.90
22923;DHT22;11627;51.322;22.816;2022-09-02T17:24:13;17.80;99.90
22923;DHT22;11627;51.322;22.816;2022-09-02T17:26:41;17.70;99.90
22923;DHT22;11627;51.322;22.816;2022-09-02T17:29:09;17.70;99.90
22923;DHT22;11627;51.322;22.816;2022-09-02T17:31:35;17.60;99.90
22923;DHT22;11627;51.322;22.816;2022-09-02T17:34:04;17.50;99.90
22923;DHT22;11627;51.322;22.816;2022-09-02T17:36:31;17.60;99.90
22923;DHT22;11627;51.322;22.816;2022-09-02T17:39:00;17.60;99.90
22923;DHT22;11627;51.322;22.816;2022-09-02T17:41:26;17.40;99.90
22923;DHT22;11627;51.322;22.816;2022-09-02T17:44:12;17.30;99.90
22923;DHT22;11627;51.322;22.816;2022-09-02T17:49:04;17.00;99.90
22923;DHT22;11627;51.322;22.816;2022-09-02T17:51:31;17.00;99.90
22923;DHT22;11627;51.322;22.816;2022-09-02T17:53:56;16.80;99.90
22923;DHT22;11627;51.322;22.816;2022-09-02T17:59:49;16.80;99.90
22923;DHT22;11627;51.322;22.816;2022-09-02T18:10:58;16.30;99.90
22923;DHT22;11627;51.322;22.816;2022-09-02T18:13:45;16.30;99.90
22923;DHT22;11627;51.322;22.816;2022-09-02T18:16:21;16.00;99.90
22923;DHT22;11627;51.322;22.816;2022-09-02T18:19:11;16.10;99.90
22923;DHT22;11627;51.322;22.816;2022-09-02T18:30:05;15.80;99.90
22923;DHT22;11627;51.322;22.816;2022-09-02T18:32:57;15.80;99.90
22923;DHT22;11627;51.322;22.816;2022-09-02T18:46:58;15.40;99.90
22923;DHT22;11627;51.322;22.816;2022-09-02T18:49:31;15.30;1.00
22923;DHT22;11627;51.322;22.816;2022-09-02T18:52:00;15.20;1.00
22923;DHT22;11627;51.322;22.816;2022-09-02T18:54:50;15.30;7.40
22923;DHT22;11627;51.322;22.816;2022-09-02T18:57:20;15.30;22.80
22923;DHT22;11627;51.322;22.816;2022-09-02T19:00:08;15.20;99.90